Time;durP1;ratioP1;P1;durP2;ratioP2;P2;SDS_P1;SDS_P2;PMS_P1;PMS_P2;Temp;Humidity;BMP_temperature;BMP_pressure;BME280_temperature;BME280_humidity;BME280_pressure;Samples;Min_cycle;Max_cycle;Signal;HPM_P1;HPM_P2
2022/09/24 00:00:51;;;;;;;8.63;4.70;;;11.30;99.90;;;;;;5083600;28;20203;-86
2022/09/24 00:03:22;;;;;;;6.73;4.80;;;11.30;99.90;;;;;;5082900;28;20213;-84
2022/09/24 00:05:48;;;;;;;6.30;4.20;;;11.30;99.90;;;;;;5084103;28;20183;-85
2022/09/24 00:08:16;;;;;;;5.50;4.03;;;11.30;99.90;;;;;;5082774;28;20184;-86
2022/09/24 00:10:43;;;;;;;9.63;5.13;;;11.30;99.90;;;;;;5083309;28;20191;-87
2022/09/24 00:13:12;;;;;;;8.10;4.60;;;11.30;99.90;;;;;;5082720;28;20215;-86
2022/09/24 00:15:40;;;;;;;8.37;3.80;;;11.30;99.90;;;;;;5100745;28;20540;-86
2022/09/24 00:18:06;;;;;;;5.87;4.00;;;11.30;99.90;;;;;;5082221;28;20187;-85
2022/09/24 00:20:33;;;;;;;7.57;4.63;;;11.30;99.90;;;;;;5100326;28;20629;-85
2022/09/24 00:23:00;;;;;;;7.70;4.73;;;11.30;99.90;;;;;;5084068;28;20184;-86
2022/09/24 00:28:12;;;;;;;13.67;7.10;;;11.40;99.90;;;;;;5100977;28;20623;-86
2022/09/24 00:30:39;;;;;;;9.43;4.60;;;11.40;99.90;;;;;;5100649;28;20183;-84
2022/09/24 00:33:05;;;;;;;10.77;5.50;;;11.30;99.90;;;;;;5082463;28;20299;-86
2022/09/24 00:35:35;;;;;;;5.43;3.70;;;11.40;99.90;;;;;;5100663;28;20521;-87
2022/09/24 00:38:01;;;;;;;10.47;5.00;;;11.30;99.90;;;;;;5100562;28;20180;-86
2022/09/24 00:40:32;;;;;;;6.87;4.07;;;11.30;99.90;;;;;;5082283;28;20521;-87
2022/09/24 00:42:58;;;;;;;5.80;3.70;;;11.30;99.90;;;;;;5082228;28;20626;-85
2022/09/24 00:45:26;;;;;;;10.70;5.27;;;11.30;99.90;;;;;;5082750;28;20180;-86
2022/09/24 00:47:52;;;;;;;4.37;3.40;;;11.30;99.90;;;;;;5082925;28;20641;-84
2022/09/24 00:50:20;;;;;;;11.13;6.13;;;11.30;99.90;;;;;;5101762;28;20169;-84
2022/09/24 00:53:02;;;;;;;9.13;4.67;;;11.20;99.90;;;;;;5082496;28;20200;-84
2022/09/24 00:55:29;;;;;;;6.07;4.23;;;11.20;99.90;;;;;;5100849;28;20167;-87
2022/09/24 00:57:57;;;;;;;5.87;4.73;;;11.20;99.90;;;;;;5100984;28;20191;-85
2022/09/24 01:00:23;;;;;;;4.57;3.63;;;11.20;99.90;;;;;;5100498;28;20168;-86
2022/09/24 01:02:57;;;;;;;5.60;3.67;;;11.20;99.90;;;;;;5100539;28;20184;-85
2022/09/24 01:05:22;;;;;;;7.17;3.77;;;11.20;99.90;;;;;;5100799;28;20235;-85
2022/09/24 01:07:48;;;;;;;5.83;3.03;;;11.20;99.90;;;;;;5082595;28;20204;-86
2022/09/24 01:10:46;;;;;;;5.00;3.60;;;11.10;99.90;;;;;;5100530;28;20172;-86
2022/09/24 01:13:27;;;;;;;5.47;3.13;;;11.20;99.90;;;;;;5100370;28;20220;-85
2022/09/24 01:16:22;;;;;;;5.73;3.20;;;11.20;99.90;;;;;;5081936;28;20172;-86
2022/09/24 01:19:08;;;;;;;3.30;3.00;;;11.20;99.90;;;;;;5100265;28;20156;-83
2022/09/24 01:21:55;;;;;;;5.37;3.57;;;11.20;99.90;;;;;;5081813;28;20165;-85
2022/09/24 06:21:59;;;;;;;5.57;3.47;;;11.80;99.90;;;;;;5139481;27;20268;-85
2022/09/24 06:24:25;;;;;;;4.67;3.70;;;11.90;99.90;;;;;;5128497;28;20286;-85
2022/09/24 06:26:50;;;;;;;4.80;3.60;;;11.90;99.90;;;;;;5136215;28;20640;-85
2022/09/24 06:29:17;;;;;;;6.00;3.50;;;;;;;;;;5136614;28;20751;-85
2022/09/24 10:10:14;;;;;;;3.50;2.80;;;13.50;99.90;;;;;;5136576;27;20269;-86
2022/09/24 10:12:40;;;;;;;3.83;2.90;;;13.50;99.90;;;;;;5116504;28;20171;-87
2022/09/24 10:15:18;;;;;;;3.43;2.57;;;13.50;99.90;;;;;;5134771;28;20195;-89
2022/09/24 10:17:46;;;;;;;3.03;2.73;;;13.70;99.90;;;;;;5140830;28;20588;-88
2022/09/24 10:20:22;;;;;;;3.43;2.77;;;13.80;99.90;;;;;;5139366;27;20167;-88
2022/09/24 10:23:02;;;;;;;4.67;3.13;;;13.90;99.90;;;;;;5140255;27;20179;-88
2022/09/24 10:25:30;;;;;;;4.23;3.70;;;14.00;99.90;;;;;;5138454;28;20175;-87
2022/09/24 10:30:59;;;;;;;4.80;4.00;;;14.20;99.90;;;;;;5140178;28;20216;-88
2022/09/24 10:33:34;;;;;;;8.27;6.23;;;14.20;99.90;;;;;;5137318;28;20206;-87
2022/09/24 10:36:20;;;;;;;5.27;4.20;;;14.20;99.90;;;;;;5138719;28;20247;-88
2022/09/24 10:38:46;;;;;;;6.17;5.57;;;14.20;99.90;;;;;;5133851;28;20180;-88
2022/09/24 10:41:27;;;;;;;3.00;2.70;;;14.10;99.90;;;;;;5135757;28;20180;-87
2022/09/24 10:43:55;;;;;;;3.13;2.27;;;14.10;99.90;;;;;;5137498;28;20333;-88
2022/09/24 10:46:52;;;;;;;4.00;3.13;;;14.10;99.90;;;;;;5138610;28;20547;-88
2022/09/24 10:49:24;;;;;;;5.43;4.57;;;14.20;99.90;;;;;;5134695;28;20195;-88
2022/09/24 10:52:09;;;;;;;5.70;4.27;;;14.20;99.90;;;;;;5134544;28;20171;-87
2022/09/24 10:54:40;;;;;;;3.10;2.77;;;14.10;99.90;;;;;;5135121;28;20565;-88
2022/09/24 10:57:50;;;;;;;4.40;4.00;;;14.10;99.90;;;;;;5135892;28;20576;-85
2022/09/24 11:00:25;;;;;;;8.03;7.27;;;14.10;99.90;;;;;;5129300;28;20212;-86
2022/09/24 11:03:16;;;;;;;5.33;4.73;;;14.10;99.90;;;;;;5138656;28;20185;-88
2022/09/24 11:05:52;;;;;;;6.37;4.40;;;14.10;99.90;;;;;;5138865;27;20167;-89
2022/09/24 11:08:55;;;;;;;3.43;2.53;;;14.10;99.90;;;;;;5137076;27;20213;-87
2022/09/24 11:11:33;;;;;;;5.67;3.50;;;14.10;99.90;;;;;;5135578;28;20170;-88
2022/09/24 11:14:07;;;;;;;8.73;6.43;;;14.20;99.90;;;;;;5136235;28;20656;-87
2022/09/24 11:17:02;;;;;;;5.20;2.70;;;14.30;99.90;;;;;;5136319;28;20185;-85
2022/09/24 11:19:46;;;;;;;7.00;5.87;;;14.30;99.90;;;;;;5133459;28;20186;-86
2022/09/24 11:22:15;;;;;;;6.37;4.40;;;14.40;99.90;;;;;;5122047;28;20233;-88
2022/09/24 11:25:11;;;;;;;6.07;4.63;;;14.50;99.90;;;;;;5121793;28;20687;-87
2022/09/24 11:27:48;;;;;;;7.03;5.40;;;14.40;99.90;;;;;;5122862;28;20190;-85
2022/09/24 11:30:20;;;;;;;21.50;14.63;;;14.40;99.90;;;;;;5122299;28;20183;-87
2022/09/24 11:32:51;;;;;;;6.47;4.33;;;14.40;99.90;;;;;;5123599;28;20172;-89
2022/09/24 11:35:38;;;;;;;13.13;9.90;;;14.40;99.90;;;;;;5123271;28;20182;-89
2022/09/24 11:38:13;;;;;;;9.60;6.67;;;14.50;99.90;;;;;;5120758;28;20183;-91
2022/09/24 11:40:47;;;;;;;11.00;7.40;;;14.60;99.90;;;;;;5121844;28;20179;-88
2022/09/24 11:43:34;;;;;;;11.43;4.90;;;14.60;99.90;;;;;;5122998;28;20285;-88
2022/09/24 11:46:25;;;;;;;3.47;2.83;;;14.80;99.90;;;;;;5122116;28;20225;-86
2022/09/24 11:49:31;;;;;;;4.03;2.50;;;15.10;99.90;;;;;;5121505;28;20202;-86
2022/09/24 11:52:19;;;;;;;4.33;2.80;;;15.30;99.90;;;;;;5121285;28;20170;-88
2022/09/24 11:55:25;;;;;;;2.63;2.33;;;15.40;99.90;;;;;;5123763;27;20268;-87
2022/09/24 11:58:13;;;;;;;2.50;2.30;;;15.30;99.90;;;;;;5121361;28;20160;-86
2022/09/24 12:00:50;;;;;;;2.10;1.90;;;15.20;99.90;;;;;;5121763;28;20160;-89
2022/09/24 12:03:24;;;;;;;3.10;2.10;;;15.20;99.90;;;;;;5121954;28;20609;-88
2022/09/24 12:05:56;;;;;;;4.00;3.30;;;15.10;99.90;;;;;;5124015;28;20175;-88
2022/09/24 12:09:20;;;;;;;8.13;4.17;;;15.20;99.90;;;;;;5122770;28;20206;-89
2022/09/24 12:11:50;;;;;;;6.40;4.37;;;15.30;99.90;;;;;;5064725;28;20200;-87
2022/09/24 12:14:26;;;;;;;6.80;4.70;;;15.40;99.90;;;;;;5062827;28;20193;-89
2022/09/24 12:16:58;;;;;;;4.67;3.90;;;15.70;99.90;;;;;;5103916;28;20179;-87
2022/09/24 12:19:38;;;;;;;2.70;2.50;;;15.90;99.90;;;;;;5123051;28;20189;-87
2022/09/24 12:22:05;;;;;;;4.03;2.80;;;16.30;99.90;;;;;;5120996;28;20694;-88
2022/09/24 12:24:43;;;;;;;4.07;2.90;;;16.50;99.90;;;;;;5122669;28;20301;-89
2022/09/24 12:27:16;;;;;;;2.83;2.53;;;16.60;99.90;;;;;;5121495;28;20164;-86
2022/09/24 12:32:53;;;;;;;2.80;2.00;;;16.10;99.90;;;;;;5122522;28;20184;-87
2022/09/24 12:35:53;;;;;;;2.57;2.17;;;16.00;99.90;;;;;;5124199;27;20627;-88
2022/09/24 12:38:29;;;;;;;2.90;2.10;;;15.90;99.90;;;;;;5122723;28;20180;-87
2022/09/24 12:41:16;;;;;;;4.07;2.37;;;15.80;99.90;;;;;;5124128;28;20184;-89
2022/09/24 12:44:10;;;;;;;2.43;2.17;;;16.00;99.90;;;;;;5122271;28;20653;-89
2022/09/24 12:46:54;;;;;;;2.50;2.10;;;16.00;99.90;;;;;;5122654;28;20178;-87
2022/09/24 12:49:26;;;;;;;4.40;3.20;;;16.20;99.90;;;;;;5120157;28;20573;-87
2022/09/24 12:51:56;;;;;;;5.37;3.20;;;16.20;99.90;;;;;;5119174;28;20176;-87
2022/09/24 12:54:36;;;;;;;3.63;2.60;;;16.30;99.90;;;;;;5124871;28;20600;-88
2022/09/24 12:57:17;;;;;;;7.63;5.33;;;16.10;99.90;;;;;;5125366;28;20249;-88
2022/09/24 12:59:57;;;;;;;4.57;3.90;;;16.00;99.90;;;;;;5125899;28;20191;-88
2022/09/24 13:02:22;;;;;;;3.40;2.77;;;15.90;99.90;;;;;;5126695;28;20184;-89
2022/09/24 13:05:00;;;;;;;6.47;5.00;;;15.90;99.90;;;;;;5139664;28;20189;-87
2022/09/24 13:07:38;;;;;;;4.67;2.83;;;15.80;99.90;;;;;;5140578;28;20163;-87
2022/09/24 13:10:21;;;;;;;5.87;3.80;;;15.70;99.90;;;;;;5139655;28;20184;-87
2022/09/24 13:12:48;;;;;;;3.57;2.43;;;15.70;99.90;;;;;;5122023;28;20587;-88
2022/09/24 13:15:37;;;;;;;2.33;2.13;;;15.70;99.90;;;;;;5127496;28;20174;-87
2022/09/24 13:18:09;;;;;;;2.13;1.93;;;15.80;99.90;;;;;;5138496;28;20170;-88
2022/09/24 13:20:37;;;;;;;3.07;2.00;;;15.70;99.90;;;;;;5137233;28;20201;-88
2022/09/24 13:23:18;;;;;;;3.13;2.03;;;15.70;99.90;;;;;;5137763;28;20213;-87
2022/09/24 13:25:57;;;;;;;2.10;1.90;;;15.60;99.90;;;;;;5138222;28;20179;-87
2022/09/24 13:28:26;;;;;;;3.40;2.07;;;15.70;99.90;;;;;;5137415;28;20270;-87
2022/09/24 13:31:08;;;;;;;2.67;2.30;;;15.70;99.90;;;;;;5132795;28;20646;-89
2022/09/24 13:33:42;;;;;;;2.63;1.90;;;15.60;99.90;;;;;;5118748;28;20194;-87
2022/09/24 13:36:24;;;;;;;2.10;1.90;;;15.40;99.90;;;;;;5118411;28;20200;-87
2022/09/24 13:39:06;;;;;;;2.57;1.97;;;15.30;99.90;;;;;;5120916;28;20694;-86
2022/09/24 13:41:59;;;;;;;5.03;2.17;;;15.20;99.90;;;;;;5119131;28;20687;-88
2022/09/24 13:44:29;;;;;;;2.50;2.30;;;15.10;99.90;;;;;;5118788;28;20192;-87
2022/09/24 13:47:21;;;;;;;2.93;2.20;;;15.10;99.90;;;;;;5119031;28;20176;-86
2022/09/24 13:49:50;;;;;;;4.80;2.57;;;15.00;99.90;;;;;;5116790;28;20187;-84
2022/09/24 13:52:29;;;;;;;3.37;2.63;;;15.00;99.90;;;;;;5117883;28;20166;-88
2022/09/24 13:54:59;;;;;;;3.20;2.37;;;15.10;99.90;;;;;;5119136;28;20274;-88
2022/09/24 13:57:28;;;;;;;5.10;2.63;;;15.20;99.90;;;;;;5119997;28;20238;-88
2022/09/24 14:00:11;;;;;;;3.90;3.43;;;15.20;99.90;;;;;;5122728;28;20201;-88
2022/09/24 14:02:38;;;;;;;6.53;3.33;;;15.10;99.90;;;;;;5130031;28;20163;-88
2022/09/24 14:05:10;;;;;;;3.40;2.60;;;15.00;99.90;;;;;;5132782;28;20711;-87
2022/09/24 14:07:36;;;;;;;2.77;2.07;;;15.00;99.90;;;;;;5132663;28;20187;-86
2022/09/24 14:10:13;;;;;;;2.70;2.30;;;15.00;99.90;;;;;;5127659;28;20260;-87
2022/09/24 14:12:39;;;;;;;2.97;2.47;;;15.00;99.90;;;;;;5122134;28;20191;-89
2022/09/24 14:15:15;;;;;;;2.67;2.47;;;14.90;99.90;;;;;;5121224;28;20203;-87
2022/09/24 14:17:41;;;;;;;3.60;2.77;;;14.90;99.90;;;;;;5126278;28;20174;-86
2022/09/24 14:20:18;;;;;;;3.03;2.63;;;14.80;99.90;;;;;;5124783;28;20171;-87
2022/09/24 14:22:45;;;;;;;3.07;2.70;;;14.70;99.90;;;;;;5120854;28;20262;-87
2022/09/24 14:25:23;;;;;;;5.97;5.23;;;14.70;99.90;;;;;;5122408;28;20328;-87
2022/09/24 14:27:50;;;;;;;6.03;4.30;;;14.60;99.90;;;;;;5119520;28;20246;-86
2022/09/24 14:30:23;;;;;;;4.60;4.03;;;14.60;99.90;;;;;;5117866;28;20167;-87
2022/09/24 14:32:58;;;;;;;4.10;3.20;;;14.60;99.90;;;;;;5119328;28;20625;-86
2022/09/24 14:35:35;;;;;;;4.73;2.80;;;14.50;99.90;;;;;;5118181;28;20171;-87
2022/09/24 14:38:08;;;;;;;2.87;2.63;;;14.50;99.90;;;;;;5119553;28;20497;-87
2022/09/24 14:40:53;;;;;;;3.70;2.77;;;14.50;99.90;;;;;;5118834;28;20179;-86
2022/09/24 14:43:39;;;;;;;5.33;3.00;;;14.50;99.90;;;;;;5120218;28;20214;-87
2022/09/24 14:46:17;;;;;;;3.90;3.50;;;14.60;99.90;;;;;;5118880;28;20176;-87
2022/09/24 14:48:43;;;;;;;5.97;5.07;;;14.50;99.90;;;;;;5120198;28;20197;-87
2022/09/24 14:51:28;;;;;;;4.30;2.97;;;14.50;99.90;;;;;;5118539;28;20604;-88
2022/09/24 14:54:00;;;;;;;5.30;3.50;;;14.40;99.90;;;;;;5117680;28;20202;-87
2022/09/24 14:56:29;;;;;;;3.97;2.90;;;14.40;99.90;;;;;;5119684;28;20179;-88
2022/09/24 14:58:54;;;;;;;7.67;3.90;;;14.30;99.90;;;;;;5123201;28;20176;-88
2022/09/24 15:01:23;;;;;;;8.47;5.60;;;14.30;99.90;;;;;;5122970;28;20186;-88
2022/09/24 15:03:53;;;;;;;4.47;3.80;;;14.30;99.90;;;;;;5124028;28;20203;-88
2022/09/24 15:06:23;;;;;;;2.87;2.67;;;14.20;99.90;;;;;;5122910;28;20207;-87
2022/09/24 15:09:01;;;;;;;3.40;2.97;;;14.20;99.90;;;;;;5122274;28;20207;-87
2022/09/24 15:11:33;;;;;;;5.17;3.57;;;14.10;99.90;;;;;;5123641;28;20175;-87
2022/09/24 15:14:26;;;;;;;3.70;3.27;;;14.10;99.90;;;;;;5124490;28;20191;-87
2022/09/24 15:16:53;;;;;;;3.93;3.23;;;14.10;99.90;;;;;;5122876;28;20172;-87
2022/09/24 15:19:25;;;;;;;6.20;3.90;;;14.10;99.90;;;;;;5122253;28;20201;-87
2022/09/24 15:21:54;;;;;;;28.83;25.93;;;14.20;99.90;;;;;;5123096;28;20179;-87
2022/09/24 15:24:20;;;;;;;7.90;7.10;;;14.10;99.90;;;;;;5125671;28;20226;-86
2022/09/24 15:26:59;;;;;;;5.70;4.93;;;14.20;99.90;;;;;;5125509;28;20168;-85
2022/09/24 15:29:25;;;;;;;6.93;5.70;;;14.20;99.90;;;;;;5123018;28;20287;-87
2022/09/24 15:31:52;;;;;;;6.73;3.90;;;14.30;99.90;;;;;;5122498;28;20223;-87
2022/09/24 15:34:19;;;;;;;5.10;3.80;;;14.30;99.90;;;;;;5121941;28;20202;-85
2022/09/24 15:36:49;;;;;;;4.90;4.20;;;14.30;99.90;;;;;;5122719;28;20538;-87
2022/09/24 15:39:16;;;;;;;5.40;4.37;;;14.30;99.90;;;;;;5122083;28;20194;-86
2022/09/24 15:41:42;;;;;;;8.57;4.17;;;14.30;99.90;;;;;;5123374;28;20195;-87
2022/09/24 15:44:18;;;;;;;5.10;4.30;;;14.30;99.90;;;;;;5121877;28;20206;-88
2022/09/24 15:46:46;;;;;;;5.53;5.03;;;14.20;99.90;;;;;;5122774;28;20190;-88
2022/09/24 15:49:12;;;;;;;4.40;3.47;;;14.20;99.90;;;;;;5121459;28;20223;-88
2022/09/24 15:51:38;;;;;;;5.27;3.70;;;14.10;99.90;;;;;;5121558;28;20668;-88
2022/09/24 15:54:05;;;;;;;5.63;4.10;;;14.00;99.90;;;;;;5122750;28;20196;-87
2022/09/24 15:56:32;;;;;;;6.40;3.67;;;14.00;99.90;;;;;;5123237;28;20758;-88
2022/09/24 15:58:58;;;;;;;4.63;3.80;;;13.90;99.90;;;;;;5120701;28;20175;-87
2022/09/24 16:01:24;;;;;;;6.30;4.57;;;13.90;99.90;;;;;;5121886;28;20202;-87
2022/09/24 16:03:52;;;;;;;5.37;4.87;;;13.90;99.90;;;;;;5121154;28;20665;-86
2022/09/24 16:06:18;;;;;;;5.90;4.40;;;13.80;99.90;;;;;;5121425;28;20228;-87
2022/09/24 16:08:43;;;;;;;8.40;7.50;;;13.80;99.90;;;;;;5120662;28;20207;-86
2022/09/24 16:11:09;;;;;;;10.97;8.07;;;13.80;99.90;;;;;;5120845;28;20202;-85
2022/09/24 16:13:35;;;;;;;7.63;6.37;;;13.70;99.90;;;;;;5121929;28;20214;-87
2022/09/24 16:16:00;;;;;;;6.97;5.23;;;13.70;99.90;;;;;;5120604;28;20186;-87
2022/09/24 16:18:26;;;;;;;9.30;7.83;;;13.70;99.90;;;;;;5122323;28;20706;-87
2022/09/24 16:20:52;;;;;;;6.40;5.20;;;;;;;;;;5120490;28;20167;-87
2022/09/24 16:23:18;;;;;;;5.50;4.50;;;13.70;99.90;;;;;;5120671;28;20192;-87
2022/09/24 16:25:55;;;;;;;5.77;4.30;;;13.70;99.90;;;;;;5121123;28;20176;-87
2022/09/24 16:28:21;;;;;;;6.50;4.27;;;13.70;99.90;;;;;;5120497;28;20199;-87
2022/09/24 16:30:47;;;;;;;3.90;3.27;;;13.70;99.90;;;;;;5120208;28;20175;-85
2022/09/24 16:33:12;;;;;;;6.97;4.07;;;13.70;99.90;;;;;;5121220;28;20244;-87
2022/09/24 16:35:38;;;;;;;4.23;3.50;;;13.60;99.90;;;;;;5121854;28;20168;-86
2022/09/24 16:38:04;;;;;;;3.80;3.47;;;13.60;99.90;;;;;;5121341;28;20182;-86
2022/09/24 16:40:30;;;;;;;5.13;3.80;;;13.70;99.90;;;;;;5122250;28;20199;-86
2022/09/24 16:42:55;;;;;;;4.50;3.90;;;13.60;99.90;;;;;;5120297;28;20181;-87
2022/09/24 16:45:21;;;;;;;3.90;3.50;;;13.60;99.90;;;;;;5120948;28;20216;-86
2022/09/24 16:47:47;;;;;;;5.70;4.87;;;13.60;99.90;;;;;;5121193;28;20171;-85
2022/09/24 16:50:13;;;;;;;6.43;5.10;;;13.60;99.90;;;;;;5121344;28;20197;-86
2022/09/24 16:52:39;;;;;;;10.47;7.27;;;13.50;99.90;;;;;;5122353;28;20543;-86
2022/09/24 16:55:05;;;;;;;10.43;8.23;;;13.50;99.90;;;;;;5129318;28;20200;-85
